createdAt,value
2023-03-19T00:00:47.876Z,8.86
2023-03-19T00:01:50.715Z,8.89
2023-03-19T00:02:53.349Z,8.86
2023-03-19T00:03:56.400Z,8.92
2023-03-19T00:04:59.036Z,8.87
2023-03-19T00:06:02.286Z,8.88
2023-03-19T00:07:04.802Z,8.86
2023-03-19T00:08:07.559Z,8.89
2023-03-19T00:09:10.561Z,8.92
2023-03-19T00:10:13.441Z,8.90
2023-03-19T00:11:16.340Z,8.89
2023-03-19T00:12:18.842Z,8.95
2023-03-19T00:13:21.485Z,8.92
2023-03-19T00:14:24.249Z,8.92
2023-03-19T00:15:26.650Z,8.89
2023-03-19T00:16:29.214Z,8.92
2023-03-19T00:17:31.696Z,8.92
2023-03-19T00:18:34.333Z,8.87
2023-03-19T00:19:36.976Z,8.88
2023-03-19T00:20:39.849Z,8.92
2023-03-19T00:21:42.489Z,8.88
2023-03-19T00:22:44.773Z,8.84
2023-03-19T00:23:47.434Z,8.91
2023-03-19T00:24:49.936Z,8.88
2023-03-19T00:25:54.732Z,8.98
2023-03-19T00:26:57.289Z,8.90
2023-03-19T00:28:00.855Z,8.92
2023-03-19T00:29:04.846Z,9.01
2023-03-19T00:30:08.185Z,8.97
2023-03-19T00:31:15.778Z,9.12
2023-03-19T00:32:18.272Z,8.99
2023-03-19T00:33:21.380Z,8.98
2023-03-19T00:34:24.153Z,8.99
2023-03-19T00:35:27.143Z,8.99
2023-03-19T00:36:30.410Z,8.97
2023-03-19T00:37:33.874Z,8.93
2023-03-19T00:38:36.379Z,8.90
2023-03-19T00:39:38.930Z,8.95
2023-03-19T00:40:41.423Z,8.92
2023-03-19T00:41:50.559Z,8.93
2023-03-19T00:42:53.187Z,8.89
2023-03-19T00:43:57.659Z,8.95
2023-03-19T00:45:00.403Z,8.83
2023-03-19T00:46:03.418Z,8.80
2023-03-19T00:47:06.995Z,8.82
2023-03-19T00:48:09.631Z,8.76
2023-03-19T00:49:12.274Z,8.74
2023-03-19T00:50:14.921Z,8.76
2023-03-19T00:51:17.910Z,8.81
2023-03-19T00:52:20.674Z,8.83
2023-03-19T00:53:23.195Z,8.87
2023-03-19T00:54:25.713Z,8.89
2023-03-19T00:55:28.243Z,8.95
2023-03-19T00:56:30.758Z,9.00
2023-03-19T00:57:33.514Z,9.11
2023-03-19T00:58:36.154Z,9.14
2023-03-19T00:59:38.563Z,9.16
2023-03-19T01:00:41.097Z,9.23
2023-03-19T01:01:45.207Z,9.26
2023-03-19T01:02:47.556Z,9.27
2023-03-19T01:03:50.434Z,9.30
2023-03-19T01:04:52.983Z,9.39
2023-03-19T01:05:55.613Z,9.42
2023-03-19T01:08:02.810Z,9.51
2023-03-19T01:09:06.520Z,9.48
2023-03-19T01:10:09.887Z,9.56
2023-03-19T01:11:15.162Z,9.59
2023-03-19T01:12:19.486Z,9.52
2023-03-19T01:13:22.006Z,9.50
2023-03-19T01:14:25.019Z,9.55
2023-03-19T01:15:27.528Z,9.57
2023-03-19T01:16:30.164Z,9.59
2023-03-19T01:17:32.919Z,9.66
2023-03-19T01:18:35.920Z,9.62
2023-03-19T01:19:38.321Z,9.60
2023-03-19T01:20:42.523Z,9.66
2023-03-19T01:21:46.619Z,9.61
2023-03-19T01:22:53.096Z,9.59
2023-03-19T01:23:55.966Z,9.60
2023-03-19T01:25:00.083Z,9.59
2023-03-19T01:26:03.171Z,9.65
2023-03-19T01:27:06.052Z,9.67
2023-03-19T01:28:10.254Z,9.67
2023-03-19T01:29:14.818Z,9.64
2023-03-19T01:30:17.931Z,9.69
2023-03-19T01:31:39.052Z,9.65
2023-03-19T01:33:18.172Z,9.67
2023-03-19T01:34:34.511Z,9.62
2023-03-19T01:35:47.727Z,9.72
2023-03-19T01:36:50.695Z,9.69
2023-03-19T01:37:58.386Z,9.80
2023-03-19T01:39:01.752Z,9.86
2023-03-19T01:40:06.185Z,9.88
2023-03-19T01:41:08.713Z,9.86
2023-03-19T01:42:12.537Z,9.87
2023-03-19T01:43:33.662Z,9.87
2023-03-19T01:44:46.858Z,9.78
2023-03-19T01:46:08.164Z,9.91
2023-03-19T01:47:33.181Z,9.87
2023-03-19T01:48:59.856Z,9.92
2023-03-19T01:50:03.911Z,9.87
2023-03-19T01:51:10.269Z,9.89
2023-03-19T01:52:34.381Z,9.91
2023-03-19T01:53:56.397Z,9.92
2023-03-19T01:55:12.668Z,9.76
2023-03-19T01:56:52.385Z,9.86
2023-03-19T01:58:26.945Z,9.81
2023-03-19T01:59:56.467Z,9.98
2023-03-19T02:01:19.086Z,9.78
2023-03-19T02:02:35.495Z,10.01
2023-03-19T02:04:07.111Z,9.90
2023-03-19T02:05:14.838Z,9.85
2023-03-19T02:06:21.068Z,9.84
2023-03-19T02:07:23.711Z,9.80
2023-03-19T02:08:27.314Z,9.79
2023-03-19T02:09:30.792Z,9.87
2023-03-19T02:10:34.255Z,9.91
2023-03-19T02:11:38.237Z,9.89
2023-03-19T02:12:41.117Z,9.83
2023-03-19T02:13:44.112Z,9.88
2023-03-19T02:14:46.516Z,9.87
2023-03-19T02:15:51.236Z,9.87
2023-03-19T02:16:55.046Z,9.96
2023-03-19T02:17:58.760Z,9.91
2023-03-19T02:19:02.003Z,9.90
2023-03-19T02:20:18.345Z,10.10
2023-03-19T02:21:22.170Z,9.94
2023-03-19T02:22:29.121Z,9.98
2023-03-19T02:23:44.137Z,10.09
2023-03-19T02:24:56.965Z,9.93
2023-03-19T02:26:12.326Z,10.01
2023-03-19T02:27:14.965Z,9.84
2023-03-19T02:28:23.740Z,9.87
2023-03-19T02:29:28.641Z,9.76
2023-03-19T02:30:34.878Z,9.77
2023-03-19T02:31:42.619Z,9.72
2023-03-19T02:32:45.233Z,9.71
2023-03-19T02:33:57.808Z,9.80
2023-03-19T02:35:00.685Z,9.66
2023-03-19T02:36:06.741Z,9.69
2023-03-19T02:37:21.329Z,9.76
2023-03-19T02:38:26.133Z,9.67
2023-03-19T02:39:46.056Z,9.74
2023-03-19T02:41:07.420Z,9.80
2023-03-19T02:42:13.556Z,9.72
2023-03-19T02:43:16.668Z,9.61
2023-03-19T02:44:20.258Z,9.59
2023-03-19T02:45:29.976Z,9.76
2023-03-19T02:46:32.897Z,9.63
2023-03-19T02:47:35.512Z,9.62
2023-03-19T02:48:38.021Z,9.62
2023-03-19T02:49:40.656Z,9.67
2023-03-19T02:50:43.300Z,9.65
2023-03-19T02:51:45.822Z,9.62
2023-03-19T02:52:48.365Z,9.62
2023-03-19T02:53:50.737Z,9.62
2023-03-19T02:54:53.865Z,9.58
2023-03-19T02:55:56.261Z,9.57
2023-03-19T02:56:59.035Z,9.55
2023-03-19T02:58:01.436Z,9.57
2023-03-19T02:59:04.788Z,9.57
2023-03-19T03:00:08.023Z,9.64
2023-03-19T03:01:10.563Z,9.58
2023-03-19T03:02:13.500Z,9.57
2023-03-19T03:03:16.428Z,9.57
2023-03-19T03:04:19.068Z,9.50
2023-03-19T03:05:21.719Z,9.54
2023-03-19T03:06:24.241Z,9.51
2023-03-19T03:07:28.074Z,9.49
2023-03-19T03:08:30.597Z,9.48
2023-03-19T03:09:33.359Z,9.48
2023-03-19T03:10:35.813Z,9.44
2023-03-19T03:11:41.757Z,9.44
2023-03-19T03:12:44.759Z,9.40
2023-03-19T03:13:47.288Z,9.40
2023-03-19T03:14:50.055Z,9.38
2023-03-19T03:15:54.005Z,9.40
2023-03-19T03:16:57.485Z,9.38
2023-03-19T03:18:00.002Z,9.35
2023-03-19T03:19:02.640Z,9.38
2023-03-19T03:20:07.091Z,9.43
2023-03-19T03:21:10.333Z,9.36
2023-03-19T03:22:13.212Z,9.35
2023-03-19T03:23:15.729Z,9.34
2023-03-19T03:24:18.246Z,9.33
2023-03-19T03:25:21.258Z,9.33
2023-03-19T03:26:23.779Z,9.33
2023-03-19T03:27:27.150Z,9.33
2023-03-19T03:28:29.768Z,9.32
2023-03-19T03:29:33.011Z,9.34
2023-03-19T03:30:35.792Z,9.35
2023-03-19T03:31:38.583Z,9.33
2023-03-19T03:32:41.585Z,9.33
2023-03-19T03:33:44.184Z,9.34
2023-03-19T03:34:46.696Z,9.30
2023-03-19T03:35:49.227Z,9.34
2023-03-19T03:36:52.214Z,9.34
2023-03-19T03:37:55.337Z,9.35
2023-03-19T03:38:58.720Z,9.37
2023-03-19T03:40:01.217Z,9.37
2023-03-19T03:41:03.742Z,9.39
2023-03-19T03:42:07.462Z,9.42
2023-03-19T03:43:11.185Z,9.44
2023-03-19T03:44:13.725Z,9.47
2023-03-19T03:45:17.304Z,9.43
2023-03-19T03:46:20.906Z,9.42
2023-03-19T03:47:25.713Z,9.42
2023-03-19T03:48:28.716Z,9.42
2023-03-19T03:49:31.712Z,9.45
2023-03-19T03:50:34.299Z,9.45
2023-03-19T03:51:42.274Z,9.48
2023-03-19T03:52:44.924Z,9.47
2023-03-19T03:53:47.427Z,9.51
2023-03-19T03:54:50.434Z,9.51
2023-03-19T03:55:53.071Z,9.54
2023-03-19T03:56:58.471Z,9.53
2023-03-19T03:58:01.231Z,9.53
2023-03-19T03:59:04.112Z,9.55
2023-03-19T04:00:07.114Z,9.57
2023-03-19T04:01:16.961Z,9.59
2023-03-19T04:02:22.637Z,9.59
2023-03-19T04:03:25.962Z,9.60
2023-03-19T04:04:28.834Z,9.60
2023-03-19T04:05:31.479Z,9.62
2023-03-19T04:06:34.995Z,9.58
2023-03-19T04:07:48.949Z,9.61
2023-03-19T04:08:52.009Z,9.62
2023-03-19T04:09:57.520Z,9.69
2023-03-19T04:11:00.039Z,9.61
2023-03-19T04:12:03.040Z,9.59
2023-03-19T04:13:05.571Z,9.61
2023-03-19T04:14:08.807Z,9.66
2023-03-19T04:15:13.731Z,9.77
2023-03-19T04:16:19.010Z,9.76
2023-03-19T04:17:21.645Z,9.75
2023-03-19T04:18:24.176Z,9.77
2023-03-19T04:19:27.404Z,9.80
2023-03-19T04:20:30.408Z,9.81
2023-03-19T04:21:32.927Z,9.78
2023-03-19T04:22:35.457Z,9.79
2023-03-19T04:23:38.812Z,9.75
2023-03-19T04:24:41.570Z,9.75
2023-03-19T04:25:44.093Z,9.76
2023-03-19T04:26:48.648Z,9.77
2023-03-19T04:27:52.851Z,9.80
2023-03-19T04:28:55.371Z,9.82
2023-03-19T04:29:57.795Z,9.87
2023-03-19T04:31:04.906Z,9.90
2023-03-19T04:32:09.416Z,9.85
2023-03-19T04:33:13.213Z,9.86
2023-03-19T04:34:15.778Z,9.95
2023-03-19T04:35:18.430Z,9.91
2023-03-19T04:36:21.177Z,9.90
2023-03-19T04:37:23.951Z,9.89
2023-03-19T04:38:27.900Z,9.89
2023-03-19T04:39:30.661Z,9.90
2023-03-19T04:40:33.579Z,9.86
2023-03-19T04:41:36.787Z,9.87
2023-03-19T04:42:55.035Z,9.91
2023-03-19T04:44:11.113Z,9.90
2023-03-19T04:45:39.587Z,10.00
2023-03-19T04:46:42.183Z,9.86
2023-03-19T04:47:44.714Z,9.80
2023-03-19T04:48:47.230Z,9.83
2023-03-19T04:49:49.749Z,9.79
2023-03-19T04:50:57.192Z,9.78
2023-03-19T04:51:59.946Z,9.76
2023-03-19T04:53:02.826Z,9.75
2023-03-19T04:54:05.957Z,9.78
2023-03-19T04:55:08.836Z,9.72
2023-03-19T04:56:23.106Z,9.66
2023-03-19T04:57:25.752Z,9.62
2023-03-19T04:58:30.548Z,9.61
2023-03-19T04:59:37.148Z,9.60
2023-03-19T05:00:40.395Z,9.61
2023-03-19T05:01:43.632Z,9.58
2023-03-19T05:02:47.952Z,9.60
2023-03-19T05:03:51.003Z,9.61
2023-03-19T05:04:54.075Z,9.58
2023-03-19T05:05:56.474Z,9.57
2023-03-19T05:06:59.530Z,9.56
2023-03-19T05:08:02.115Z,9.58
2023-03-19T05:09:06.675Z,9.59
2023-03-19T05:10:10.521Z,9.62
2023-03-19T05:11:13.277Z,9.57
2023-03-19T05:12:32.001Z,9.58
2023-03-19T05:13:34.894Z,9.58
2023-03-19T05:14:37.401Z,9.58
2023-03-19T05:15:55.707Z,9.65
2023-03-19T05:16:58.646Z,9.62
2023-03-19T05:18:04.167Z,9.62
2023-03-19T05:19:12.443Z,9.63
2023-03-19T05:20:15.705Z,9.63
2023-03-19T05:21:27.686Z,9.69
2023-03-19T05:22:30.571Z,9.67
2023-03-19T05:23:33.086Z,9.64
2023-03-19T05:24:41.008Z,9.62
2023-03-19T05:25:44.281Z,9.64
2023-03-19T05:26:50.250Z,9.64
2023-03-19T05:28:25.056Z,9.68
2023-03-19T05:29:28.055Z,9.66
2023-03-19T05:30:53.845Z,9.68
2023-03-19T05:32:03.306Z,9.66
2023-03-19T05:33:07.081Z,9.69
2023-03-19T05:34:13.078Z,9.69
2023-03-19T05:35:15.930Z,9.68
2023-03-19T05:36:19.176Z,9.66
2023-03-19T05:37:32.015Z,9.72
2023-03-19T05:38:35.377Z,9.71
2023-03-19T05:39:43.659Z,9.71
2023-03-19T05:40:47.020Z,9.71
2023-03-19T05:41:59.256Z,9.71
2023-03-19T05:43:04.436Z,9.66
2023-03-19T05:44:07.057Z,9.71
2023-03-19T05:45:29.987Z,9.71
2023-03-19T05:46:36.523Z,9.78
2023-03-19T05:47:39.590Z,9.76
2023-03-19T05:48:42.480Z,9.77
2023-03-19T05:49:45.352Z,9.79
2023-03-19T05:50:48.588Z,9.86
2023-03-19T05:51:55.073Z,9.80
2023-03-19T05:52:58.307Z,9.82
2023-03-19T05:54:01.186Z,9.77
2023-03-19T05:55:09.738Z,9.80
2023-03-19T05:56:16.068Z,9.81
2023-03-19T05:57:37.064Z,9.97
2023-03-19T05:58:43.311Z,9.84
2023-03-19T05:59:51.237Z,9.92
2023-03-19T06:01:09.106Z,9.95
2023-03-19T06:02:11.870Z,9.93
2023-03-19T06:03:15.591Z,9.98
2023-03-19T06:04:24.372Z,9.98
2023-03-19T06:05:26.998Z,9.98
2023-03-19T06:06:33.486Z,10.01
2023-03-19T06:07:36.471Z,10.10
2023-03-19T06:08:43.190Z,10.08
2023-03-19T06:10:04.553Z,10.19
2023-03-19T06:11:07.432Z,10.17
2023-03-19T06:12:10.555Z,10.16
2023-03-19T06:13:18.956Z,10.16
2023-03-19T06:14:29.403Z,10.15
2023-03-19T06:15:58.225Z,10.14
2023-03-19T06:17:12.841Z,10.20
2023-03-19T06:18:16.450Z,10.22
2023-03-19T06:19:20.048Z,10.25
2023-03-19T06:20:22.565Z,10.27
2023-03-19T06:21:29.799Z,10.24
2023-03-19T06:22:35.282Z,10.22
2023-03-19T06:23:38.056Z,10.19
2023-03-19T06:24:42.250Z,10.20
2023-03-19T06:25:45.244Z,10.20
2023-03-19T06:26:48.739Z,10.25
2023-03-19T06:27:51.603Z,10.20
2023-03-19T06:29:01.684Z,10.23
2023-03-19T06:30:05.288Z,10.27
2023-03-19T06:31:09.035Z,10.21
2023-03-19T06:32:29.785Z,10.28
2023-03-19T06:33:37.117Z,10.27
2023-03-19T06:34:39.993Z,10.30
2023-03-19T06:35:42.650Z,10.35
2023-03-19T06:36:45.256Z,10.32
2023-03-19T06:37:49.219Z,10.41
2023-03-19T06:38:51.994Z,10.43
2023-03-19T06:39:57.263Z,10.37
2023-03-19T06:40:59.657Z,10.41
2023-03-19T06:42:02.508Z,10.43
2023-03-19T06:43:04.935Z,10.43
2023-03-19T06:44:07.586Z,10.45
2023-03-19T06:45:10.464Z,10.46
2023-03-19T06:46:13.182Z,10.55
2023-03-19T06:47:15.759Z,10.55
2023-03-19T06:48:18.980Z,10.54
2023-03-19T06:49:22.004Z,10.54
2023-03-19T06:50:24.504Z,10.59
2023-03-19T06:51:28.000Z,10.66
2023-03-19T06:52:30.625Z,10.70
2023-03-19T06:53:33.270Z,10.64
2023-03-19T06:54:38.228Z,10.62
2023-03-19T06:55:41.188Z,10.65
2023-03-19T06:56:43.589Z,10.70
2023-03-19T06:57:49.588Z,10.82
2023-03-19T06:58:52.232Z,10.70
2023-03-19T06:59:55.113Z,10.84
2023-03-19T07:00:58.237Z,10.82
2023-03-19T07:02:00.764Z,10.89
2023-03-19T07:03:03.401Z,10.91
2023-03-19T07:04:06.331Z,10.91
2023-03-19T07:05:09.037Z,10.97
2023-03-19T07:06:11.915Z,10.96
2023-03-19T07:07:14.436Z,10.94
2023-03-19T07:08:16.955Z,10.97
2023-03-19T07:09:19.472Z,10.99
2023-03-19T07:10:22.594Z,11.04
2023-03-19T07:11:25.120Z,11.09
2023-03-19T07:12:28.057Z,11.06
2023-03-19T07:13:30.757Z,11.06
2023-03-19T07:14:33.280Z,11.16
2023-03-19T07:15:36.763Z,11.22
2023-03-19T07:16:39.662Z,11.23
2023-03-19T07:17:42.164Z,11.28
2023-03-19T07:18:44.561Z,11.32
2023-03-19T07:19:47.084Z,11.39
2023-03-19T07:20:49.618Z,11.44
2023-03-19T07:21:52.242Z,11.52
2023-03-19T07:22:55.007Z,11.55
2023-03-19T07:23:57.537Z,11.68
2023-03-19T07:25:00.061Z,11.65
2023-03-19T07:26:03.049Z,11.76
2023-03-19T07:27:05.817Z,11.79
2023-03-19T07:28:08.217Z,11.93
2023-03-19T07:29:11.330Z,12.02
2023-03-19T07:30:14.813Z,12.10
2023-03-19T07:31:17.845Z,12.03
2023-03-19T07:32:20.714Z,12.14
2023-03-19T07:33:23.212Z,12.18
2023-03-19T07:34:26.469Z,12.29
2023-03-19T07:35:29.058Z,12.33
2023-03-19T07:36:31.740Z,12.36
2023-03-19T07:37:34.410Z,12.31
2023-03-19T07:38:36.902Z,12.50
2023-03-19T07:39:39.539Z,12.52
2023-03-19T07:40:51.355Z,12.56
2023-03-19T07:42:01.854Z,12.64
2023-03-19T07:43:04.989Z,12.70
2023-03-19T07:44:07.495Z,12.86
2023-03-19T07:45:10.386Z,12.81
2023-03-19T07:46:12.985Z,12.71
2023-03-19T07:47:27.989Z,12.81
2023-03-19T07:48:31.259Z,12.87
2023-03-19T07:49:33.778Z,12.94
2023-03-19T07:50:36.436Z,13.07
2023-03-19T07:51:39.302Z,13.27
2023-03-19T07:52:41.832Z,13.35
2023-03-19T07:53:44.474Z,13.30
2023-03-19T07:54:47.229Z,13.26
2023-03-19T07:55:49.742Z,13.29
2023-03-19T07:56:52.268Z,13.57
2023-03-19T07:57:54.810Z,13.61
2023-03-19T07:58:57.306Z,13.84
2023-03-19T07:59:59.862Z,13.94
2023-03-19T08:01:02.348Z,14.23
2023-03-19T08:02:04.919Z,14.50
2023-03-19T08:03:07.509Z,14.60
2023-03-19T08:04:10.227Z,14.75
2023-03-19T08:05:12.808Z,14.98
2023-03-19T08:06:15.432Z,15.00
2023-03-19T08:07:18.084Z,15.26
2023-03-19T08:08:20.722Z,15.57
2023-03-19T08:09:24.442Z,15.91
2023-03-19T08:10:27.914Z,16.26
2023-03-19T08:11:30.569Z,16.56
2023-03-19T08:12:35.076Z,16.87
2023-03-19T08:13:38.004Z,17.16
2023-03-19T08:14:40.693Z,17.83
2023-03-19T08:15:43.918Z,18.53
2023-03-19T08:16:48.591Z,18.43
2023-03-19T08:17:58.177Z,19.12
2023-03-19T08:19:00.694Z,19.34
2023-03-19T08:20:04.280Z,19.12
2023-03-19T08:21:07.041Z,19.23
2023-03-19T08:22:10.170Z,19.29
2023-03-19T08:23:13.521Z,19.34
2023-03-19T08:24:16.159Z,18.90
2023-03-19T08:25:18.949Z,18.57
2023-03-19T08:26:21.680Z,18.48
2023-03-19T08:27:24.092Z,18.33
2023-03-19T08:28:26.722Z,17.98
2023-03-19T08:29:29.609Z,17.54
2023-03-19T08:30:32.594Z,17.40
2023-03-19T08:31:35.727Z,17.20
2023-03-19T08:32:38.513Z,17.09
2023-03-19T08:33:41.738Z,17.30
2023-03-19T08:34:44.257Z,17.38
2023-03-19T08:35:46.946Z,17.17
2023-03-19T08:36:49.670Z,16.81
2023-03-19T08:37:52.168Z,16.50
2023-03-19T08:38:55.051Z,16.20
2023-03-19T08:39:57.691Z,15.89
2023-03-19T08:41:02.513Z,15.62
2023-03-19T08:42:05.380Z,15.43
2023-03-19T08:43:07.898Z,15.11
2023-03-19T08:44:10.667Z,14.97
2023-03-19T08:45:15.325Z,14.81
2023-03-19T08:46:18.419Z,14.46
2023-03-19T08:47:24.473Z,14.51
2023-03-19T08:48:27.817Z,14.52
2023-03-19T08:49:30.353Z,14.68
2023-03-19T08:50:33.101Z,14.60
2023-03-19T08:51:36.456Z,14.48
2023-03-19T08:52:39.282Z,14.52
2023-03-19T08:53:41.858Z,14.28
2023-03-19T08:54:44.384Z,14.37
2023-03-19T08:55:52.269Z,14.46
2023-03-19T08:56:54.826Z,14.60
2023-03-19T08:57:57.342Z,14.65
2023-03-19T08:58:59.861Z,14.40
2023-03-19T09:00:04.543Z,14.52
2023-03-19T09:01:10.807Z,14.58
2023-03-19T09:02:13.792Z,14.64
2023-03-19T09:03:17.984Z,14.77
2023-03-19T09:04:22.123Z,14.87
2023-03-19T09:05:24.591Z,14.79
2023-03-19T09:06:27.107Z,14.75
2023-03-19T09:07:29.757Z,14.81
2023-03-19T09:08:34.237Z,14.79
2023-03-19T09:09:36.839Z,14.75
2023-03-19T09:10:39.835Z,14.76
2023-03-19T09:11:42.369Z,14.69
2023-03-19T09:12:45.787Z,14.68
2023-03-19T09:13:49.934Z,14.77
2023-03-19T09:14:52.324Z,14.68
2023-03-19T09:15:54.896Z,14.86
2023-03-19T09:16:57.355Z,14.95
2023-03-19T09:17:59.994Z,14.96
2023-03-19T09:19:02.648Z,15.05
2023-03-19T09:20:07.445Z,15.03
2023-03-19T09:21:10.083Z,15.12
2023-03-19T09:22:12.625Z,14.95
2023-03-19T09:23:15.118Z,14.95
2023-03-19T09:24:18.996Z,15.07
2023-03-19T09:25:21.485Z,15.01
2023-03-19T09:26:23.894Z,14.99
2023-03-19T09:27:26.409Z,14.83
2023-03-19T09:28:28.974Z,15.02
2023-03-19T09:29:31.684Z,15.03
2023-03-19T09:30:34.692Z,15.03
2023-03-19T09:31:37.810Z,15.33
2023-03-19T09:32:40.938Z,15.39
2023-03-19T09:33:43.451Z,15.58
2023-03-19T09:34:47.182Z,15.66
2023-03-19T09:35:52.806Z,15.94
2023-03-19T09:36:55.569Z,16.08
2023-03-19T09:37:59.176Z,16.31
2023-03-19T09:39:01.692Z,16.23
2023-03-19T09:40:05.416Z,15.93
2023-03-19T09:41:29.660Z,16.18
2023-03-19T09:43:00.978Z,15.91
2023-03-19T09:44:12.738Z,15.60
2023-03-19T09:45:18.133Z,15.65
2023-03-19T09:46:26.680Z,15.65
2023-03-19T09:47:32.896Z,15.75
2023-03-19T09:48:49.585Z,15.81
2023-03-19T09:49:54.857Z,15.66
2023-03-19T09:50:59.299Z,15.65
2023-03-19T09:52:36.017Z,15.39
2023-03-19T09:53:58.823Z,15.24
2023-03-19T09:55:12.748Z,14.99
2023-03-19T09:56:19.585Z,15.00
2023-03-19T09:57:22.227Z,14.79
2023-03-19T09:58:34.601Z,14.89
2023-03-19T09:59:38.546Z,14.98
2023-03-19T10:00:42.743Z,15.20
2023-03-19T10:01:53.215Z,15.12
2023-03-19T10:03:40.625Z,15.22
2023-03-19T10:05:13.230Z,15.12
2023-03-19T10:06:35.596Z,15.01
2023-03-19T10:07:46.108Z,14.81
2023-03-19T10:09:01.246Z,14.80
2023-03-19T10:10:22.366Z,14.95
2023-03-19T10:11:30.882Z,15.00
2023-03-19T10:13:20.916Z,14.80
2023-03-19T10:14:53.796Z,14.95
2023-03-19T10:15:58.880Z,15.16
2023-03-19T10:17:04.597Z,15.39
2023-03-19T10:18:17.558Z,15.64
2023-03-19T10:19:24.767Z,15.64
2023-03-19T10:20:45.526Z,15.97
2023-03-19T10:22:00.879Z,15.82
2023-03-19T10:23:24.041Z,15.78
2023-03-19T10:24:38.340Z,15.82
2023-03-19T10:25:43.126Z,15.57
2023-03-19T10:26:46.378Z,15.40
2023-03-19T10:27:56.702Z,15.44
2023-03-19T10:29:04.967Z,15.38
2023-03-19T10:30:16.729Z,15.50
2023-03-19T10:31:43.780Z,15.36
2023-03-19T10:33:03.545Z,15.30
2023-03-19T10:34:20.213Z,15.18
2023-03-19T10:35:33.490Z,15.25
2023-03-19T10:36:37.016Z,15.08
2023-03-19T10:37:39.538Z,14.92
2023-03-19T10:38:43.402Z,14.87
2023-03-19T10:39:48.053Z,14.72
2023-03-19T10:41:05.715Z,14.97
2023-03-19T10:42:20.224Z,14.86
2023-03-19T10:43:26.118Z,14.89
2023-03-19T10:44:32.220Z,14.89
2023-03-19T10:45:38.588Z,14.86
2023-03-19T10:46:41.728Z,14.80
2023-03-19T10:47:44.820Z,14.71
2023-03-19T10:48:48.300Z,14.72
2023-03-19T10:49:51.380Z,14.75
2023-03-19T10:50:58.862Z,14.67
2023-03-19T10:52:02.108Z,14.67
2023-03-19T10:53:06.906Z,14.58
2023-03-19T10:54:30.906Z,14.81
2023-03-19T10:55:33.784Z,14.77
2023-03-19T10:56:36.784Z,14.73
2023-03-19T10:57:43.305Z,14.93
2023-03-19T10:59:05.957Z,15.10
2023-03-19T11:00:24.923Z,15.20
2023-03-19T11:01:39.792Z,15.29
2023-03-19T11:02:48.545Z,15.67
2023-03-19T11:03:55.927Z,15.87
2023-03-19T11:05:23.136Z,16.20
2023-03-19T11:06:31.392Z,16.55
2023-03-19T11:07:35.961Z,16.80
2023-03-19T11:08:38.952Z,17.26
2023-03-19T11:09:47.951Z,18.37
2023-03-19T11:10:50.615Z,18.92
2023-03-19T11:12:08.710Z,19.28
2023-03-19T11:13:37.270Z,18.97
2023-03-19T11:14:44.593Z,18.45
2023-03-19T11:15:47.953Z,17.86
2023-03-19T11:17:04.913Z,17.57
2023-03-19T11:18:16.991Z,17.56
2023-03-19T11:19:28.321Z,17.13
2023-03-19T11:20:33.689Z,17.08
2023-03-19T11:21:37.760Z,16.68
2023-03-19T11:22:40.638Z,16.67
2023-03-19T11:23:43.161Z,16.54
2023-03-19T11:24:57.317Z,16.53
2023-03-19T11:26:01.939Z,16.66
2023-03-19T11:27:05.485Z,16.46
2023-03-19T11:28:18.537Z,16.23
2023-03-19T11:29:23.844Z,16.16
2023-03-19T11:30:33.565Z,16.06
2023-03-19T11:32:21.283Z,16.11
2023-03-19T11:33:54.900Z,16.22
2023-03-19T11:35:02.604Z,16.01
2023-03-19T11:36:20.039Z,16.27
2023-03-19T11:37:31.672Z,16.07
2023-03-19T11:39:01.289Z,16.23
2023-03-19T11:40:48.449Z,16.46
2023-03-19T11:42:28.171Z,16.90
2023-03-19T11:43:54.610Z,17.87
2023-03-19T11:45:16.334Z,18.63
2023-03-19T11:46:35.861Z,19.94
2023-03-19T11:47:50.254Z,20.51
2023-03-19T11:49:13.417Z,20.97
2023-03-19T11:50:27.578Z,22.80
2023-03-19T11:51:47.379Z,22.06
2023-03-19T11:53:18.356Z,20.98
2023-03-19T11:54:44.030Z,20.35
2023-03-19T11:56:08.266Z,19.59
2023-03-19T11:57:56.763Z,18.84
2023-03-19T11:59:28.429Z,18.64
2023-03-19T12:00:57.344Z,19.02
2023-03-19T12:02:17.929Z,18.83
2023-03-19T12:03:28.619Z,18.37
2023-03-19T12:04:46.074Z,18.08
2023-03-19T12:05:57.707Z,18.24
2023-03-19T12:07:28.073Z,17.94
2023-03-19T12:08:34.193Z,17.77
2023-03-19T12:09:49.551Z,17.87
2023-03-19T12:11:16.074Z,17.75
2023-03-19T12:12:30.717Z,17.93
2023-03-19T12:13:57.477Z,18.06
2023-03-19T12:15:23.774Z,18.03
2023-03-19T12:16:52.444Z,17.92
2023-03-19T12:18:00.236Z,17.67
2023-03-19T12:19:23.517Z,17.85
2023-03-19T12:20:30.124Z,17.66
2023-03-19T12:21:52.198Z,17.61
2023-03-19T12:23:19.816Z,17.36
2023-03-19T12:24:52.692Z,16.95
2023-03-19T12:26:08.801Z,16.80
2023-03-19T12:27:29.162Z,16.91
2023-03-19T12:28:49.572Z,17.24
2023-03-19T12:30:13.456Z,17.47
2023-03-19T12:31:29.612Z,17.25
2023-03-19T12:32:46.658Z,16.96
2023-03-19T12:34:21.966Z,16.83
2023-03-19T12:35:35.406Z,17.71
2023-03-19T12:36:44.407Z,18.62
2023-03-19T12:37:50.649Z,19.71
2023-03-19T12:38:59.413Z,20.75
2023-03-19T12:40:23.648Z,22.27
2023-03-19T12:41:31.933Z,22.68
2023-03-19T12:42:39.262Z,23.04
2023-03-19T12:44:07.235Z,23.20
2023-03-19T12:45:37.090Z,22.74
2023-03-19T12:47:02.875Z,21.73
2023-03-19T12:48:16.342Z,21.58
2023-03-19T12:49:26.416Z,20.80
2023-03-19T12:50:32.241Z,20.09
2023-03-19T12:51:40.696Z,19.81
2023-03-19T12:52:47.417Z,19.73
2023-03-19T12:53:58.820Z,18.84
2023-03-19T12:56:02.781Z,18.64
2023-03-19T12:57:15.621Z,18.08
2023-03-19T12:58:26.194Z,18.16
2023-03-19T12:59:46.740Z,18.26
2023-03-19T13:01:00.027Z,18.21
2023-03-19T13:02:24.985Z,18.25
2023-03-19T13:04:03.506Z,18.38
2023-03-19T13:05:11.665Z,18.03
2023-03-19T13:06:27.273Z,17.84
2023-03-19T13:07:43.467Z,18.06
2023-03-19T13:08:53.552Z,18.70
2023-03-19T13:10:06.871Z,18.52
2023-03-19T13:11:16.114Z,18.37
2023-03-19T13:12:46.363Z,18.73
2023-03-19T13:14:02.563Z,18.88
2023-03-19T13:15:16.232Z,19.15
2023-03-19T13:16:40.387Z,18.50
2023-03-19T13:18:09.274Z,18.74
2023-03-19T13:19:23.674Z,19.48
2023-03-19T13:20:46.238Z,19.53
2023-03-19T13:21:52.356Z,20.06
2023-03-19T13:22:59.915Z,20.00
2023-03-19T13:24:12.636Z,19.65
2023-03-19T13:25:19.597Z,19.53
2023-03-19T13:26:22.477Z,19.46
2023-03-19T13:27:30.166Z,18.78
2023-03-19T13:28:35.710Z,19.07
2023-03-19T13:29:52.241Z,18.93
2023-03-19T13:31:03.806Z,19.31
2023-03-19T13:32:10.363Z,19.47
2023-03-19T13:33:23.004Z,19.87
2023-03-19T13:34:31.856Z,19.91
2023-03-19T13:35:44.229Z,20.27
2023-03-19T13:36:53.110Z,20.47
2023-03-19T13:38:23.571Z,20.62
2023-03-19T13:39:29.694Z,20.22
2023-03-19T13:40:52.016Z,19.96
2023-03-19T13:42:08.811Z,19.46
2023-03-19T13:43:28.840Z,19.58
2023-03-19T13:44:31.747Z,19.22
2023-03-19T13:45:38.445Z,18.64
2023-03-19T13:46:45.309Z,18.63
2023-03-19T13:47:51.536Z,18.72
2023-03-19T13:48:54.545Z,18.59
2023-03-19T13:50:11.026Z,18.59
2023-03-19T13:51:17.895Z,18.43
2023-03-19T13:52:20.358Z,18.02
2023-03-19T13:53:32.458Z,18.31
2023-03-19T13:54:39.054Z,18.24
2023-03-19T13:56:02.711Z,18.01
2023-03-19T13:57:18.757Z,17.87
2023-03-19T13:58:45.658Z,17.72
2023-03-19T13:59:50.588Z,17.89
2023-03-19T14:00:59.021Z,17.60
2023-03-19T14:02:22.273Z,17.47
2023-03-19T14:03:27.010Z,17.60
2023-03-19T14:04:31.884Z,17.75
2023-03-19T14:05:36.302Z,17.65
2023-03-19T14:06:48.309Z,17.77
2023-03-19T14:07:54.952Z,17.77
2023-03-19T14:08:57.554Z,17.69
2023-03-19T14:10:00.221Z,17.46
2023-03-19T14:11:05.878Z,17.61
2023-03-19T14:12:23.355Z,17.74
2023-03-19T14:13:34.532Z,17.62
2023-03-19T14:14:42.432Z,17.82
2023-03-19T14:15:50.717Z,17.97
2023-03-19T14:16:53.836Z,17.85
2023-03-19T14:18:06.210Z,18.03
2023-03-19T14:19:17.600Z,18.35
2023-03-19T14:20:24.669Z,18.23
2023-03-19T14:21:33.974Z,18.30
2023-03-19T14:22:41.233Z,18.67
2023-03-19T14:23:55.188Z,18.87
2023-03-19T14:25:12.683Z,18.91
2023-03-19T14:26:17.840Z,18.91
2023-03-19T14:27:33.097Z,18.48
2023-03-19T14:28:49.879Z,18.79
2023-03-19T14:29:55.434Z,18.71
2023-03-19T14:30:58.648Z,18.74
2023-03-19T14:32:08.033Z,19.07
2023-03-19T14:33:20.842Z,19.13
2023-03-19T14:34:43.644Z,19.40
2023-03-19T14:35:48.360Z,18.79
2023-03-19T14:37:18.327Z,19.17
2023-03-19T14:38:46.285Z,19.00
2023-03-19T14:40:02.844Z,19.58
2023-03-19T14:41:11.610Z,19.49
2023-03-19T14:42:26.488Z,20.00
2023-03-19T14:44:05.847Z,19.74
2023-03-19T14:45:29.292Z,19.52
2023-03-19T14:46:40.534Z,19.43
2023-03-19T14:48:02.013Z,18.80
2023-03-19T14:49:28.057Z,18.74
2023-03-19T14:50:54.215Z,18.83